createdAt,value
2022-09-25T00:00:14.247Z,92.48
2022-09-25T00:01:13.386Z,92.68
2022-09-25T00:01:56.888Z,92.68
2022-09-25T00:04:22.175Z,92.99
2022-09-25T00:05:35.015Z,92.89
2022-09-25T00:06:21.198Z,92.79
2022-09-25T00:10:23.964Z,92.68
2022-09-25T00:11:22.715Z,92.58
2022-09-25T00:12:13.489Z,92.38
2022-09-25T00:23:11.864Z,92.93
2022-09-25T00:24:07.696Z,92.93
2022-09-25T00:25:18.907Z,92.93
2022-09-25T00:26:08.322Z,93.03
2022-09-25T00:27:15.474Z,92.93
2022-09-25T00:28:34.697Z,92.93
2022-09-25T00:29:09.727Z,93.03
2022-09-25T00:30:07.882Z,93.03
2022-09-25T00:31:08.193Z,93.03
2022-09-25T00:32:07.929Z,92.93
2022-09-25T00:33:08.896Z,92.83
2022-09-25T00:34:07.561Z,92.72
2022-09-25T00:35:08.288Z,92.52
2022-09-25T00:36:08.856Z,92.63
2022-09-25T00:37:12.681Z,92.63
2022-09-25T00:38:07.705Z,92.72
2022-09-25T00:39:07.670Z,92.83
2022-09-25T00:40:09.519Z,92.72
2022-09-25T00:41:15.837Z,92.93
2022-09-25T00:42:11.997Z,92.83
2022-09-25T00:43:34.247Z,92.83
2022-09-25T00:44:12.953Z,92.72
2022-09-25T00:45:09.817Z,92.63
2022-09-25T00:46:10.253Z,92.63
2022-09-25T00:47:08.417Z,92.42
2022-09-25T00:48:07.653Z,92.32
2022-09-25T00:49:14.805Z,92.32
2022-09-25T00:50:07.415Z,92.11
2022-09-25T00:51:08.551Z,92.01
2022-09-25T00:52:12.096Z,92.11
2022-09-25T00:53:08.103Z,92.11
2022-09-25T00:54:12.404Z,92.11
2022-09-25T00:55:09.347Z,92.01
2022-09-25T00:56:07.138Z,91.81
2022-09-25T00:57:20.326Z,91.81
2022-09-25T00:58:11.530Z,91.91
2022-09-25T00:59:08.028Z,91.91
2022-09-25T01:00:07.856Z,91.81
2022-09-25T01:01:08.833Z,91.91
2022-09-25T01:02:07.230Z,91.91
2022-09-25T01:03:06.944Z,91.81
2022-09-25T01:04:09.426Z,91.81
2022-09-25T01:05:07.001Z,91.71
2022-09-25T01:06:13.264Z,91.81
2022-09-25T01:07:07.372Z,91.71
2022-09-25T01:08:07.487Z,91.71
2022-09-25T01:09:13.778Z,91.61
2022-09-25T01:10:10.483Z,91.71
2022-09-25T01:11:06.914Z,91.71
2022-09-25T01:12:10.124Z,91.61
2022-09-25T01:13:07.988Z,91.40
2022-09-25T01:14:07.134Z,91.55
2022-09-25T01:15:11.624Z,91.61
2022-09-25T01:16:09.920Z,91.50
2022-09-25T01:17:07.572Z,91.55
2022-09-25T01:18:07.988Z,91.50
2022-09-25T01:19:06.758Z,91.40
2022-09-25T01:20:08.790Z,91.30
2022-09-25T01:21:10.477Z,91.20
2022-09-25T01:22:14.860Z,91.20
2022-09-25T01:23:22.060Z,91.09
2022-09-25T01:24:21.884Z,91.09
2022-09-25T01:25:10.937Z,91.24
2022-09-25T01:26:06.967Z,91.24
2022-09-25T01:27:11.398Z,91.24
2022-09-25T01:28:07.475Z,91.24
2022-09-25T01:29:10.315Z,91.35
2022-09-25T01:30:19.061Z,91.35
2022-09-25T01:31:10.549Z,91.35
2022-09-25T01:32:10.082Z,91.44
2022-09-25T01:33:07.607Z,91.44
2022-09-25T01:34:07.876Z,91.44
2022-09-25T01:35:07.123Z,91.44
2022-09-25T01:36:06.643Z,91.44
2022-09-25T01:37:06.830Z,91.44
2022-09-25T01:38:06.551Z,91.44
2022-09-25T01:39:10.066Z,91.44
2022-09-25T01:40:07.623Z,91.35
2022-09-25T01:41:07.248Z,91.03
2022-09-25T01:42:15.415Z,90.94
2022-09-25T01:43:06.418Z,91.03
2022-09-25T01:44:06.433Z,90.94
2022-09-25T01:45:07.924Z,90.94
2022-09-25T01:46:06.631Z,90.94
2022-09-25T01:47:06.787Z,90.94
2022-09-25T01:48:06.590Z,90.94
2022-09-25T01:49:07.776Z,90.94
2022-09-25T01:50:07.773Z,90.94
2022-09-25T01:51:08.243Z,90.83
2022-09-25T01:52:06.357Z,90.83
2022-09-25T01:53:06.986Z,90.83
2022-09-25T01:54:11.182Z,90.73
2022-09-25T01:55:16.885Z,90.32
2022-09-25T01:56:07.358Z,90.42
2022-09-25T01:57:17.816Z,90.63
2022-09-25T01:58:09.527Z,90.42
2022-09-25T01:59:11.541Z,90.63
2022-09-25T02:00:09.909Z,90.53
2022-09-25T02:01:06.905Z,90.53
2022-09-25T02:02:27.426Z,90.53
2022-09-25T02:03:06.608Z,90.53
2022-09-25T02:04:08.765Z,90.53
2022-09-25T02:05:06.399Z,90.42
2022-09-25T02:06:14.035Z,90.47
2022-09-25T02:07:06.311Z,90.32
2022-09-25T02:08:07.608Z,90.26
2022-09-25T02:09:06.227Z,90.26
2022-09-25T02:10:06.632Z,90.26
2022-09-25T02:11:06.957Z,90.16
2022-09-25T02:12:06.398Z,90.16
2022-09-25T02:13:05.988Z,90.16
2022-09-25T02:14:21.915Z,90.16
2022-09-25T02:15:07.603Z,90.06
2022-09-25T02:16:07.975Z,90.06
2022-09-25T02:17:05.998Z,90.06
2022-09-25T02:18:08.574Z,90.06
2022-09-25T02:19:06.527Z,89.86
2022-09-25T02:20:06.317Z,89.75
2022-09-25T02:21:16.837Z,89.65
2022-09-25T02:22:06.248Z,89.75
2022-09-25T02:23:06.380Z,89.65
2022-09-25T02:24:07.266Z,89.65
2022-09-25T02:25:06.116Z,89.65
2022-09-25T02:26:09.298Z,89.65
2022-09-25T02:27:05.864Z,89.45
2022-09-25T02:28:06.258Z,89.45
2022-09-25T02:29:06.041Z,89.45
2022-09-25T02:30:05.977Z,89.45
2022-09-25T02:31:06.547Z,89.34
2022-09-25T02:32:17.542Z,89.45
2022-09-25T02:33:06.718Z,89.45
2022-09-25T02:34:13.770Z,89.45
2022-09-25T02:35:20.388Z,89.34
2022-09-25T02:36:19.005Z,89.25
2022-09-25T02:37:08.836Z,89.45
2022-09-25T02:38:18.010Z,89.59
2022-09-25T02:39:06.909Z,89.55
2022-09-25T02:40:05.965Z,89.49
2022-09-25T02:41:06.845Z,89.49
2022-09-25T02:42:05.773Z,89.25
2022-09-25T02:43:06.015Z,89.25
2022-09-25T02:44:07.908Z,89.34
2022-09-25T02:45:07.897Z,89.34
2022-09-25T02:46:07.288Z,89.34
2022-09-25T02:47:06.801Z,89.25
2022-09-25T02:48:05.800Z,89.25
2022-09-25T02:51:13.582Z,89.04
2022-09-25T02:52:10.821Z,89.08
2022-09-25T02:53:13.640Z,89.28
2022-09-25T02:54:13.976Z,89.39
2022-09-25T02:55:14.950Z,89.28
2022-09-25T02:56:10.931Z,89.18
2022-09-25T02:57:14.161Z,89.39
2022-09-25T02:58:14.762Z,89.49
2022-09-25T02:59:15.698Z,89.49
2022-09-25T03:00:10.810Z,89.49
2022-09-25T03:01:14.219Z,89.49
2022-09-25T03:02:11.042Z,89.49
2022-09-25T03:03:16.484Z,89.39
2022-09-25T03:04:29.990Z,89.39
2022-09-25T03:05:25.123Z,89.18
2022-09-25T03:06:17.723Z,89.18
2022-09-25T03:07:14.716Z,89.18
2022-09-25T03:08:11.557Z,89.18
2022-09-25T03:09:19.745Z,89.18
2022-09-25T03:10:13.328Z,89.18
2022-09-25T03:11:13.480Z,89.18
2022-09-25T03:12:11.737Z,89.08
2022-09-25T03:13:16.996Z,88.98
2022-09-25T03:14:10.576Z,89.08
2022-09-25T03:15:16.593Z,89.08
2022-09-25T03:16:19.364Z,88.88
2022-09-25T03:17:27.876Z,88.88
2022-09-25T03:18:16.989Z,88.98
2022-09-25T03:19:21.295Z,88.78
2022-09-25T03:20:14.010Z,88.78
2022-09-25T03:21:22.067Z,88.78
2022-09-25T03:22:13.417Z,88.78
2022-09-25T03:23:10.725Z,88.67
2022-09-25T03:24:10.763Z,88.47
2022-09-25T03:25:12.211Z,88.37
2022-09-25T03:26:20.552Z,88.51
2022-09-25T03:27:16.349Z,88.61
2022-09-25T03:28:20.601Z,88.51
2022-09-25T03:29:13.999Z,88.61
2022-09-25T03:30:10.374Z,88.61
2022-09-25T03:31:11.574Z,88.31
2022-09-25T03:32:10.407Z,88.10
2022-09-25T03:33:16.099Z,88.10
2022-09-25T03:34:18.306Z,88.20
2022-09-25T03:35:17.191Z,88.31
2022-09-25T03:36:25.213Z,88.41
2022-09-25T03:37:11.485Z,88.41
2022-09-25T03:38:13.374Z,88.41
2022-09-25T03:39:11.483Z,88.31
2022-09-25T03:40:12.108Z,88.31
2022-09-25T03:41:11.244Z,88.31
2022-09-25T03:42:12.001Z,88.20
2022-09-25T03:43:42.720Z,88.20
2022-09-25T03:44:40.405Z,88.10
2022-09-25T03:45:43.637Z,88.10
2022-09-25T03:46:50.818Z,88.00
2022-09-25T03:47:46.537Z,88.00
2022-09-25T03:48:47.943Z,88.31
2022-09-25T03:49:40.847Z,88.51
2022-09-25T03:50:40.363Z,88.31
2022-09-25T03:51:40.263Z,88.31
2022-09-25T03:52:40.231Z,88.20
2022-09-25T03:53:40.316Z,88.31
2022-09-25T03:54:42.607Z,88.20
2022-09-25T03:55:40.751Z,88.20
2022-09-25T03:56:40.326Z,88.20
2022-09-25T03:57:42.966Z,88.20
2022-09-25T03:58:41.945Z,88.20
2022-09-25T03:59:40.571Z,88.35
2022-09-25T04:00:45.021Z,88.45
2022-09-25T04:01:49.839Z,88.55
2022-09-25T04:02:41.428Z,88.65
2022-09-25T04:04:04.518Z,88.45
2022-09-25T04:04:41.248Z,88.45
2022-09-25T04:05:40.096Z,88.35
2022-09-25T04:06:45.689Z,88.24
2022-09-25T04:07:41.065Z,88.24
2022-09-25T04:08:40.039Z,88.45
2022-09-25T04:09:43.580Z,88.35
2022-09-25T04:10:51.783Z,88.45
2022-09-25T04:11:42.835Z,88.45
2022-09-25T04:12:40.090Z,88.45
2022-09-25T04:13:45.174Z,88.45
2022-09-25T04:14:41.357Z,88.55
2022-09-25T04:15:42.292Z,88.35
2022-09-25T04:16:43.443Z,88.55
2022-09-25T04:17:43.849Z,88.55
2022-09-25T04:18:41.735Z,88.55
2022-09-25T04:19:43.078Z,88.65
2022-09-25T04:20:43.911Z,88.65
2022-09-25T04:21:41.096Z,88.76
2022-09-25T04:22:40.025Z,88.70
2022-09-25T04:23:40.256Z,88.70
2022-09-25T04:24:41.781Z,88.90
2022-09-25T04:25:44.795Z,89.11
2022-09-25T04:26:41.867Z,89.11
2022-09-25T04:27:40.071Z,89.00
2022-09-25T04:28:40.748Z,89.00
2022-09-25T04:29:41.777Z,89.00
2022-09-25T04:30:40.048Z,89.00
2022-09-25T04:31:42.246Z,89.00
2022-09-25T04:32:54.574Z,89.11
2022-09-25T04:33:45.972Z,89.11
2022-09-25T04:34:50.596Z,89.31
2022-09-25T04:36:06.387Z,89.31
2022-09-25T04:36:41.152Z,89.20
2022-09-25T04:37:45.677Z,89.20
2022-09-25T04:38:51.821Z,89.20
2022-09-25T04:39:40.923Z,89.20
2022-09-25T04:40:42.168Z,89.00
2022-09-25T04:41:39.886Z,89.00
2022-09-25T04:42:43.807Z,88.90
2022-09-25T04:43:46.732Z,88.90
2022-09-25T04:44:49.240Z,88.90
2022-09-25T04:45:51.466Z,89.11
2022-09-25T04:46:44.604Z,89.11
2022-09-25T04:47:46.599Z,89.11
2022-09-25T04:48:48.404Z,89.00
2022-09-25T04:49:53.390Z,89.00
2022-09-25T04:50:46.173Z,89.00
2022-09-25T04:51:47.649Z,89.00
2022-09-25T04:52:50.493Z,89.00
2022-09-25T04:53:46.220Z,89.11
2022-09-25T04:54:50.932Z,89.11
2022-09-25T04:55:51.141Z,89.25
2022-09-25T04:56:51.404Z,89.35
2022-09-25T04:57:58.529Z,89.35
2022-09-25T04:58:51.980Z,89.35
2022-09-25T04:59:46.040Z,89.45
2022-09-25T05:00:58.517Z,89.45
2022-09-25T05:01:43.938Z,89.65
2022-09-25T05:02:47.637Z,89.65
2022-09-25T05:03:46.914Z,89.56
2022-09-25T05:05:10.487Z,89.45
2022-09-25T05:08:04.876Z,89.45
2022-09-25T05:08:42.845Z,89.56
2022-09-25T05:09:47.416Z,89.56
2022-09-25T05:10:41.756Z,89.45
2022-09-25T05:11:50.424Z,89.45
2022-09-25T05:12:46.422Z,89.56
2022-09-25T05:13:44.641Z,89.65
2022-09-25T05:16:16.676Z,89.56
2022-09-25T05:17:26.943Z,89.56
2022-09-25T05:18:21.124Z,89.56
2022-09-25T05:19:21.383Z,89.45
2022-09-25T05:20:24.436Z,89.59
2022-09-25T05:21:19.060Z,89.59
2022-09-25T05:22:16.372Z,89.59
2022-09-25T05:23:21.201Z,89.59
2022-09-25T05:24:17.583Z,89.59
2022-09-25T05:25:16.476Z,89.70
2022-09-25T05:26:19.544Z,89.70
2022-09-25T05:27:22.960Z,89.90
2022-09-25T05:28:17.819Z,89.90
2022-09-25T05:29:16.535Z,89.90
2022-09-25T05:30:25.431Z,90.11
2022-09-25T05:31:26.222Z,90.21
2022-09-25T05:32:19.125Z,90.21
2022-09-25T05:33:22.971Z,90.31
2022-09-25T05:34:25.072Z,90.41
2022-09-25T05:35:21.566Z,90.56
2022-09-25T05:36:19.473Z,90.66
2022-09-25T05:37:22.392Z,90.66
2022-09-25T05:38:21.217Z,90.77
2022-09-25T05:39:25.601Z,90.77
2022-09-25T05:40:28.098Z,90.77
2022-09-25T05:41:20.347Z,90.86
2022-09-25T05:42:21.834Z,90.77
2022-09-25T05:43:26.067Z,90.77
2022-09-25T05:44:26.650Z,90.66
2022-09-25T05:45:40.066Z,90.97
2022-09-25T05:47:43.031Z,90.97
2022-09-25T05:48:42.535Z,90.86
2022-09-25T05:49:46.910Z,90.86
2022-09-25T05:50:46.771Z,90.86
2022-09-25T05:51:42.529Z,90.77
2022-09-25T05:52:47.878Z,90.77
2022-09-25T05:53:45.689Z,90.77
2022-09-25T05:54:47.932Z,90.66
2022-09-25T05:55:49.182Z,90.66
2022-09-25T05:56:51.419Z,90.56
2022-09-25T05:57:44.393Z,90.66
2022-09-25T05:58:41.769Z,90.66
2022-09-25T05:59:46.189Z,90.66
2022-09-25T06:00:57.244Z,90.66
2022-09-25T06:02:01.683Z,90.66
2022-09-25T06:02:57.627Z,90.66
2022-09-25T06:03:53.843Z,90.66
2022-09-25T06:04:55.436Z,90.56
2022-09-25T06:05:47.412Z,90.56
2022-09-25T06:07:02.402Z,90.56
2022-09-25T06:13:10.330Z,91.27
2022-09-25T06:14:10.144Z,91.52
2022-09-25T06:15:10.111Z,91.83
2022-09-25T06:16:10.229Z,91.73
2022-09-25T06:17:18.456Z,91.73
2022-09-25T06:18:14.908Z,91.83
2022-09-25T06:19:10.052Z,91.73
2022-09-25T06:20:15.814Z,91.73
2022-09-25T06:21:10.965Z,91.73
2022-09-25T06:22:10.958Z,91.73
2022-09-25T06:23:10.370Z,91.73
2022-09-25T06:24:18.612Z,91.83
2022-09-25T06:25:25.824Z,91.93
2022-09-25T06:26:21.636Z,91.93
2022-09-25T06:27:14.051Z,92.03
2022-09-25T06:28:13.039Z,91.93
2022-09-25T06:29:12.973Z,91.93
2022-09-25T06:30:14.594Z,91.93
2022-09-25T06:31:11.190Z,91.83
2022-09-25T06:32:10.019Z,91.73
2022-09-25T06:33:10.762Z,91.63
2022-09-25T06:34:15.397Z,91.63
2022-09-25T06:35:10.849Z,91.63
2022-09-25T06:36:16.623Z,91.48
2022-09-25T06:37:09.813Z,91.48
2022-09-25T06:38:09.842Z,91.27
2022-09-25T06:39:12.528Z,91.17
2022-09-25T06:40:10.938Z,91.07
2022-09-25T06:41:14.438Z,90.97
2022-09-25T06:42:09.802Z,90.86
2022-09-25T06:43:17.451Z,90.77
2022-09-25T06:44:11.259Z,90.66
2022-09-25T06:45:12.139Z,90.56
2022-09-25T06:46:11.790Z,90.56
2022-09-25T06:47:13.839Z,90.56
2022-09-25T06:48:10.662Z,90.56
2022-09-25T06:49:21.745Z,90.45
2022-09-25T06:50:30.215Z,90.25
2022-09-25T06:51:26.694Z,90.21
2022-09-25T06:52:14.321Z,90.31
2022-09-25T06:53:09.612Z,90.11
2022-09-25T06:54:09.642Z,90.11
2022-09-25T06:55:09.511Z,89.80
2022-09-25T06:56:09.618Z,89.59
2022-09-25T06:57:09.968Z,89.59
2022-09-25T06:58:17.104Z,89.39
2022-09-25T06:59:16.995Z,89.04
2022-09-25T07:00:18.003Z,89.04
2022-09-25T07:01:10.585Z,89.04
2022-09-25T07:02:09.670Z,89.15
2022-09-25T07:03:09.568Z,88.84
2022-09-25T07:04:11.155Z,88.74
2022-09-25T07:05:09.560Z,88.74
2022-09-25T07:06:09.506Z,88.74
2022-09-25T07:07:15.146Z,88.64
2022-09-25T07:08:12.350Z,88.53
2022-09-25T07:09:09.512Z,88.43
2022-09-25T07:10:11.981Z,88.33
2022-09-25T07:11:09.297Z,88.33
2022-09-25T07:12:09.341Z,88.12
2022-09-25T07:13:09.310Z,88.18
2022-09-25T07:14:09.619Z,87.98
2022-09-25T07:15:10.910Z,87.88
2022-09-25T07:16:18.179Z,87.88
2022-09-25T07:17:14.069Z,87.77
2022-09-25T07:18:12.011Z,87.67
2022-09-25T07:19:17.085Z,87.43
2022-09-25T07:20:17.941Z,87.43
2022-09-25T07:21:12.647Z,87.32
2022-09-25T07:22:09.260Z,87.12
2022-09-25T07:23:18.962Z,87.12
2022-09-25T07:24:17.554Z,87.23
2022-09-25T07:25:22.269Z,87.02
2022-09-25T07:26:10.464Z,87.02
2022-09-25T07:27:09.961Z,86.82
2022-09-25T07:28:09.598Z,86.47
2022-09-25T07:29:09.264Z,86.57
2022-09-25T07:30:10.970Z,86.26
2022-09-25T07:31:09.729Z,85.86
2022-09-25T07:32:09.415Z,86.16
2022-09-25T07:33:09.209Z,85.55
2022-09-25T07:34:12.276Z,85.51
2022-09-25T07:35:09.281Z,85.30
2022-09-25T07:36:09.524Z,84.80
2022-09-25T07:37:09.468Z,84.80
2022-09-25T07:38:09.063Z,85.00
2022-09-25T07:39:13.629Z,84.90
2022-09-25T07:40:11.053Z,84.90
2022-09-25T07:41:09.033Z,84.80
2022-09-25T07:42:20.838Z,84.39
2022-09-25T07:43:12.890Z,84.04
2022-09-25T07:44:28.407Z,84.25
2022-09-25T07:45:10.209Z,83.94
2022-09-25T07:46:09.063Z,84.14
2022-09-25T07:47:08.959Z,84.14
2022-09-25T07:48:08.920Z,84.14
2022-09-25T07:49:09.637Z,83.94
2022-09-25T07:50:15.280Z,83.84
2022-09-25T07:51:13.169Z,83.80
2022-09-25T07:52:09.236Z,83.29
2022-09-25T07:53:10.475Z,82.98
2022-09-25T07:54:09.014Z,82.47
2022-09-25T07:55:09.582Z,82.27
2022-09-25T07:56:08.839Z,82.13
2022-09-25T07:57:09.182Z,82.23
2022-09-25T07:58:09.234Z,82.13
2022-09-25T07:59:09.489Z,82.23
2022-09-25T08:00:10.261Z,81.62
2022-09-25T08:01:23.782Z,81.52
2022-09-25T08:02:16.276Z,81.41
2022-09-25T08:03:14.177Z,81.41
2022-09-25T08:04:11.273Z,81.41
2022-09-25T08:05:13.550Z,81.62
2022-09-25T08:06:08.753Z,81.68
2022-09-25T08:07:16.681Z,81.27
2022-09-25T08:08:08.575Z,80.97
2022-09-25T08:09:11.034Z,80.97
2022-09-25T08:10:10.817Z,80.87
2022-09-25T08:11:08.827Z,80.56
2022-09-25T08:12:08.675Z,80.56
2022-09-25T08:13:08.463Z,80.93
2022-09-25T08:14:08.615Z,80.38
2022-09-25T08:15:08.461Z,79.63
2022-09-25T08:16:08.569Z,78.92
2022-09-25T08:17:08.470Z,78.72
2022-09-25T08:18:09.998Z,78.31
2022-09-25T08:19:08.664Z,78.55
2022-09-25T08:20:09.394Z,78.15
2022-09-25T08:21:08.670Z,78.96
2022-09-25T08:22:08.360Z,78.92
2022-09-25T08:23:08.349Z,78.41
2022-09-25T08:24:08.408Z,78.31
2022-09-25T08:25:08.360Z,78.52
2022-09-25T08:26:08.456Z,77.70
2022-09-25T08:27:13.937Z,77.81
2022-09-25T08:28:18.109Z,77.81
2022-09-25T08:29:14.073Z,77.60
2022-09-25T08:30:09.477Z,78.05
2022-09-25T08:31:15.279Z,78.11
2022-09-25T08:32:29.400Z,78.31
2022-09-25T08:33:14.557Z,78.21
2022-09-25T08:34:38.975Z,78.31
2022-09-25T08:37:06.377Z,78.01
2022-09-25T08:37:35.857Z,77.60
2022-09-25T08:40:59.166Z,76.86
2022-09-25T08:41:57.169Z,76.48
2022-09-25T08:42:54.284Z,76.68
2022-09-25T08:43:55.678Z,76.68
2022-09-25T08:45:19.592Z,76.79
2022-09-25T08:45:58.677Z,76.55
2022-09-25T08:47:05.066Z,76.45
2022-09-25T08:48:23.481Z,76.45
2022-09-25T08:49:15.419Z,76.34
2022-09-25T08:49:58.528Z,76.45
2022-09-25T08:50:57.721Z,76.55
2022-09-25T08:52:00.390Z,76.34
2022-09-25T08:53:03.088Z,76.25
2022-09-25T08:53:53.211Z,76.14
2022-09-25T08:54:54.355Z,76.45
2022-09-25T08:56:05.564Z,76.25
2022-09-25T08:56:57.183Z,76.25
2022-09-25T08:58:03.049Z,76.55
2022-09-25T08:59:04.746Z,76.45
2022-09-25T09:00:01.453Z,76.86
2022-09-25T09:01:05.121Z,76.75
2022-09-25T09:02:07.733Z,76.65
2022-09-25T09:02:54.315Z,76.34
2022-09-25T09:07:24.687Z,76.01
2022-09-25T09:08:11.928Z,75.90
2022-09-25T09:08:52.578Z,76.01
2022-09-25T09:09:53.555Z,75.49
2022-09-25T09:10:58.060Z,75.60
2022-09-25T09:13:50.525Z,75.90
2022-09-25T09:14:15.903Z,76.10
2022-09-25T09:15:12.122Z,75.49
2022-09-25T09:16:10.545Z,74.99
2022-09-25T09:17:09.239Z,75.40
2022-09-25T09:18:10.803Z,75.09
2022-09-25T09:19:10.351Z,75.19
2022-09-25T09:20:14.989Z,75.12
2022-09-25T09:21:12.525Z,75.53
2022-09-25T09:22:09.346Z,76.04
2022-09-25T09:23:13.488Z,76.14
2022-09-25T09:24:12.532Z,76.14
2022-09-25T09:28:41.916Z,75.53
2022-09-25T09:29:08.388Z,75.23
2022-09-25T09:30:08.604Z,75.33
2022-09-25T09:31:07.212Z,75.63
2022-09-25T09:32:47.898Z,75.94
2022-09-25T09:33:08.492Z,75.84
2022-09-25T09:35:06.876Z,75.84
2022-09-25T09:35:09.866Z,75.29
2022-09-25T09:36:10.703Z,75.40
2022-09-25T09:37:08.259Z,75.49
2022-09-25T09:38:08.371Z,75.19
2022-09-25T09:39:13.669Z,74.65
2022-09-25T09:40:09.515Z,74.51
2022-09-25T09:41:06.963Z,73.39
2022-09-25T09:42:12.406Z,73.57
2022-09-25T09:43:13.145Z,72.85
2022-09-25T09:44:09.574Z,72.52
2022-09-25T09:45:09.077Z,71.60
2022-09-25T09:46:22.021Z,71.37
2022-09-25T09:47:06.276Z,71.50
2022-09-25T09:48:42.276Z,71.94
2022-09-25T09:49:11.076Z,72.25
2022-09-25T09:52:47.491Z,73.29
2022-09-25T09:53:57.921Z,73.39
2022-09-25T09:54:45.985Z,73.70
2022-09-25T09:55:59.173Z,73.90
2022-09-25T09:59:16.843Z,73.09
2022-09-25T10:00:16.609Z,72.78
2022-09-25T10:03:21.810Z,73.22
2022-09-25T10:04:10.314Z,73.22
2022-09-25T10:05:13.263Z,73.13
2022-09-25T10:06:19.108Z,73.74
2022-09-25T10:07:09.850Z,73.13
2022-09-25T10:09:25.076Z,74.18
2022-09-25T10:10:29.536Z,74.24
2022-09-25T10:11:44.337Z,73.33
2022-09-25T10:14:17.404Z,72.38
2022-09-25T10:14:38.331Z,71.97
2022-09-25T10:15:36.048Z,71.97
2022-09-25T10:16:35.147Z,71.47
2022-09-25T10:19:28.616Z,71.73
2022-09-25T10:20:56.501Z,70.62
2022-09-25T10:21:27.843Z,70.92
2022-09-25T10:22:28.877Z,70.42
2022-09-25T10:23:26.875Z,71.13
2022-09-25T10:25:58.767Z,70.89
2022-09-25T10:26:50.029Z,70.69
2022-09-25T10:27:49.432Z,70.92
2022-09-25T10:28:54.766Z,70.83
2022-09-25T10:29:54.460Z,70.42
2022-09-25T10:31:00.525Z,70.32
2022-09-25T10:31:50.614Z,70.32
2022-09-25T10:32:57.245Z,70.11
2022-09-25T10:33:56.253Z,70.42
2022-09-25T10:36:56.467Z,70.45
2022-09-25T10:37:27.403Z,70.45
2022-09-25T10:38:31.489Z,70.76
2022-09-25T10:39:43.602Z,70.52
2022-09-25T10:40:21.626Z,70.01
2022-09-25T10:43:27.275Z,69.81
2022-09-25T10:44:25.715Z,69.81
2022-09-25T10:45:23.196Z,70.11
2022-09-25T10:46:23.355Z,70.52
2022-09-25T10:47:28.474Z,70.08
2022-09-25T10:48:24.075Z,69.47
2022-09-25T10:51:02.589Z,68.52
2022-09-25T10:53:17.763Z,67.44
2022-09-25T10:54:13.174Z,67.95
2022-09-25T10:55:13.370Z,67.88
2022-09-25T10:56:16.628Z,67.38
2022-09-25T10:57:15.650Z,67.27
2022-09-25T10:58:20.706Z,67.41
2022-09-25T10:59:20.019Z,68.01
2022-09-25T11:00:14.676Z,67.10
2022-09-25T11:01:19.224Z,66.49
2022-09-25T11:02:11.366Z,67.61
2022-09-25T11:05:30.505Z,67.81
2022-09-25T11:06:15.138Z,67.81
2022-09-25T11:07:24.546Z,67.98
2022-09-25T11:10:03.140Z,65.52
2022-09-25T11:11:48.567Z,64.88
2022-09-25T11:15:14.947Z,64.78
2022-09-25T11:15:41.053Z,64.44
2022-09-25T11:16:41.889Z,64.24
2022-09-25T11:18:02.985Z,64.51
2022-09-25T11:19:09.634Z,64.31
2022-09-25T11:19:42.836Z,64.11
2022-09-25T11:47:22.994Z,59.95
2022-09-25T11:48:21.393Z,59.88
2022-09-25T11:49:22.136Z,59.88
2022-09-25T11:51:46.998Z,60.06
2022-09-25T11:52:41.861Z,59.45
2022-09-25T11:53:40.502Z,58.34
2022-09-25T11:54:40.558Z,58.44
2022-09-25T11:55:43.633Z,57.53
2022-09-25T11:56:40.406Z,57.12
2022-09-25T11:57:40.457Z,57.02
2022-09-25T11:58:40.271Z,57.22
2022-09-25T11:59:40.081Z,58.20
2022-09-25T12:00:40.227Z,59.12
2022-09-25T12:01:40.274Z,57.78
2022-09-25T12:02:39.984Z,57.04
2022-09-25T12:03:43.230Z,56.23
2022-09-25T12:04:41.655Z,56.02
2022-09-25T12:05:43.648Z,55.32
2022-09-25T12:06:39.925Z,55.55
2022-09-25T12:07:40.600Z,55.75
2022-09-25T12:08:41.077Z,56.89
2022-09-25T12:09:40.002Z,58.20
2022-09-25T12:10:44.060Z,58.61
2022-09-25T12:11:39.928Z,58.20
2022-09-25T12:12:40.110Z,58.61
2022-09-25T12:13:40.171Z,58.51
2022-09-25T12:14:39.917Z,58.31
2022-09-25T12:15:39.829Z,59.01
2022-09-25T12:16:41.402Z,58.18
2022-09-25T12:17:40.127Z,58.99
2022-09-25T12:18:39.964Z,59.19
2022-09-25T12:19:39.801Z,59.47
2022-09-25T12:20:40.100Z,58.15
2022-09-25T12:21:40.144Z,56.84
2022-09-25T12:22:39.696Z,55.32
2022-09-25T12:23:40.203Z,54.13
2022-09-25T12:24:39.946Z,53.52
2022-09-25T12:25:40.370Z,51.70
2022-09-25T12:26:41.093Z,51.81
2022-09-25T12:27:39.964Z,52.03
2022-09-25T12:28:39.827Z,50.92
2022-09-25T12:29:39.722Z,51.62
2022-09-25T12:30:39.983Z,52.15
2022-09-25T12:31:39.646Z,52.36
2022-09-25T12:32:39.885Z,52.97
2022-09-25T12:33:39.770Z,53.47
2022-09-25T12:34:39.528Z,53.98
2022-09-25T12:35:39.711Z,53.96
2022-09-25T12:36:46.285Z,54.26
2022-09-25T12:37:40.546Z,54.26
2022-09-25T12:38:41.912Z,54.46
2022-09-25T12:39:40.921Z,54.64
2022-09-25T12:40:46.901Z,54.64
2022-09-25T12:41:53.632Z,55.04
2022-09-25T12:42:40.088Z,54.33
2022-09-25T12:43:39.628Z,53.40
2022-09-25T12:44:42.291Z,53.60
2022-09-25T12:45:41.662Z,53.60
2022-09-25T12:46:39.651Z,53.80
2022-09-25T12:47:39.878Z,54.21
2022-09-25T12:48:39.573Z,53.60
2022-09-25T12:49:41.578Z,53.88
2022-09-25T12:50:40.170Z,54.38
2022-09-25T12:51:39.324Z,53.70
2022-09-25T12:52:41.658Z,54.21
2022-09-25T12:53:40.817Z,54.82
2022-09-25T12:54:39.443Z,54.41
2022-09-25T12:55:39.376Z,54.31
2022-09-25T12:56:39.341Z,53.70
2022-09-25T12:57:39.511Z,54.61
2022-09-25T12:58:39.217Z,54.61
2022-09-25T12:59:43.902Z,54.61
2022-09-25T13:00:41.315Z,54.38
2022-09-25T13:01:39.483Z,54.91
2022-09-25T13:02:39.341Z,55.42
2022-09-25T13:03:39.275Z,55.02
2022-09-25T13:04:39.145Z,55.42
2022-09-25T13:05:39.116Z,55.73
2022-09-25T13:06:39.210Z,55.82
2022-09-25T13:07:39.151Z,56.33
2022-09-25T13:08:39.129Z,56.43
2022-09-25T13:09:39.142Z,56.43
2022-09-25T13:10:39.033Z,56.53
2022-09-25T13:11:39.004Z,56.63
2022-09-25T13:12:39.046Z,56.33
2022-09-25T13:13:39.159Z,56.53
2022-09-25T13:14:39.146Z,57.24
2022-09-25T13:15:39.023Z,56.20
2022-09-25T13:16:39.030Z,56.51
2022-09-25T13:17:39.074Z,55.80
2022-09-25T13:18:38.903Z,56.71
2022-09-25T13:19:38.883Z,55.60
2022-09-25T13:20:38.949Z,55.80
2022-09-25T13:21:39.046Z,55.90
2022-09-25T13:22:38.918Z,54.58
2022-09-25T13:23:38.920Z,54.69
2022-09-25T13:24:38.919Z,55.09
2022-09-25T13:25:39.009Z,54.69
2022-09-25T13:26:39.168Z,54.58
2022-09-25T13:27:39.777Z,55.19
2022-09-25T13:28:41.813Z,54.99
2022-09-25T13:29:39.653Z,55.09
2022-09-25T13:30:38.885Z,55.29
2022-09-25T13:31:38.763Z,55.69
2022-09-25T13:32:38.719Z,55.60
2022-09-25T13:33:38.860Z,56.20
2022-09-25T13:34:38.967Z,56.63
2022-09-25T13:35:38.665Z,56.73
2022-09-25T13:36:38.853Z,57.04
2022-09-25T13:37:39.609Z,57.44
2022-09-25T13:38:39.770Z,57.44
2022-09-25T13:39:38.656Z,56.53
2022-09-25T13:40:38.760Z,57.24
2022-09-25T13:41:39.068Z,57.44
2022-09-25T13:42:38.838Z,57.44
2022-09-25T13:43:38.729Z,57.44
2022-09-25T13:44:40.902Z,58.15
2022-09-25T13:45:38.643Z,58.15
2022-09-25T13:46:38.634Z,58.36
2022-09-25T13:47:38.683Z,58.56
2022-09-25T13:48:39.634Z,58.65
2022-09-25T13:49:38.517Z,58.99
2022-09-25T13:50:39.065Z,58.69
2022-09-25T13:51:38.899Z,57.67
2022-09-25T13:52:39.220Z,57.57
2022-09-25T13:53:38.597Z,58.28
2022-09-25T13:54:38.772Z,58.38
2022-09-25T13:55:38.938Z,58.38
2022-09-25T13:56:38.680Z,58.78
2022-09-25T13:57:39.702Z,59.09
2022-09-25T13:58:38.397Z,57.67
2022-09-25T13:59:38.819Z,57.37
2022-09-25T14:00:38.772Z,57.57
2022-09-25T14:01:38.467Z,57.14
2022-09-25T14:02:41.005Z,56.94
2022-09-25T14:03:39.449Z,55.73
2022-09-25T14:04:38.368Z,55.15
2022-09-25T14:05:38.303Z,55.55
2022-09-25T14:06:39.320Z,56.26
2022-09-25T14:07:38.231Z,56.05
2022-09-25T14:08:44.240Z,55.75
2022-09-25T14:09:38.304Z,55.24
2022-09-25T14:10:38.219Z,55.85
2022-09-25T14:11:41.269Z,56.05
2022-09-25T14:12:39.407Z,55.44
2022-09-25T14:13:38.841Z,55.44
2022-09-25T14:14:38.278Z,55.55
2022-09-25T14:15:38.260Z,56.05
2022-09-25T14:16:38.271Z,56.15
2022-09-25T14:17:38.176Z,56.26
2022-09-25T14:18:38.155Z,56.33
2022-09-25T14:19:38.133Z,56.73
2022-09-25T14:20:38.231Z,56.73
2022-09-25T14:21:38.171Z,55.52
2022-09-25T14:22:38.183Z,55.11
2022-09-25T14:23:40.054Z,53.90